sensor_id;sensor_type;location;lat;lon;timestamp;P1;durP1;ratioP1;P2;durP2;ratioP2
22697;SDS011;11516;51.612;7.510;2022-10-19T00:02:22;4.65;;;3.40;;
22697;SDS011;11516;51.612;7.510;2022-10-19T00:04:48;6.20;;;3.93;;
22697;SDS011;11516;51.612;7.510;2022-10-19T00:07:13;6.83;;;3.90;;
22697;SDS011;11516;51.612;7.510;2022-10-19T00:09:39;4.73;;;3.60;;
22697;SDS011;11516;51.612;7.510;2022-10-19T00:12:07;5.30;;;3.50;;
22697;SDS011;11516;51.612;7.510;2022-10-19T00:14:33;6.40;;;3.67;;
22697;SDS011;11516;51.612;7.510;2022-10-19T00:16:58;5.73;;;3.43;;
22697;SDS011;11516;51.612;7.510;2022-10-19T00:19:25;8.43;;;3.93;;
22697;SDS011;11516;51.612;7.510;2022-10-19T00:21:52;7.20;;;3.80;;
22697;SDS011;11516;51.612;7.510;2022-10-19T00:24:18;5.82;;;3.58;;
22697;SDS011;11516;51.612;7.510;2022-10-19T00:26:44;4.68;;;3.40;;
22697;SDS011;11516;51.612;7.510;2022-10-19T00:29:13;6.90;;;3.40;;
22697;SDS011;11516;51.612;7.510;2022-10-19T00:31:39;4.90;;;3.38;;
22697;SDS011;11516;51.612;7.510;2022-10-19T00:34:05;5.68;;;3.38;;
22697;SDS011;11516;51.612;7.510;2022-10-19T00:36:32;6.07;;;3.80;;
22697;SDS011;11516;51.612;7.510;2022-10-19T00:38:59;6.03;;;4.00;;
22697;SDS011;11516;51.612;7.510;2022-10-19T00:41:28;7.22;;;4.10;;
22697;SDS011;11516;51.612;7.510;2022-10-19T00:43:57;7.05;;;4.05;;
22697;SDS011;11516;51.612;7.510;2022-10-19T00:46:25;6.40;;;4.13;;
22697;SDS011;11516;51.612;7.510;2022-10-19T00:48:53;9.13;;;4.17;;
22697;SDS011;11516;51.612;7.510;2022-10-19T00:51:23;6.75;;;3.90;;
22697;SDS011;11516;51.612;7.510;2022-10-19T00:53:52;7.22;;;4.00;;
22697;SDS011;11516;51.612;7.510;2022-10-19T00:56:18;5.72;;;3.80;;
22697;SDS011;11516;51.612;7.510;2022-10-19T00:58:44;4.70;;;3.58;;
22697;SDS011;11516;51.612;7.510;2022-10-19T01:01:10;5.10;;;3.37;;
22697;SDS011;11516;51.612;7.510;2022-10-19T01:03:41;5.70;;;3.50;;
22697;SDS011;11516;51.612;7.510;2022-10-19T01:06:07;5.72;;;3.67;;
22697;SDS011;11516;51.612;7.510;2022-10-19T01:08:33;6.03;;;3.70;;
22697;SDS011;11516;51.612;7.510;2022-10-19T01:16:19;5.20;;;3.40;;
22697;SDS011;11516;51.612;7.510;2022-10-19T01:18:58;6.20;;;3.60;;
22697;SDS011;11516;51.612;7.510;2022-10-19T01:21:38;6.05;;;3.70;;
22697;SDS011;11516;51.612;7.510;2022-10-19T01:27:06;6.55;;;3.63;;
22697;SDS011;11516;51.612;7.510;2022-10-19T01:32:29;7.00;;;3.20;;
22697;SDS011;11516;51.612;7.510;2022-10-19T01:35:07;5.25;;;3.35;;
22697;SDS011;11516;51.612;7.510;2022-10-19T01:37:54;7.25;;;3.55;;
22697;SDS011;11516;51.612;7.510;2022-10-19T01:40:41;7.68;;;3.75;;
22697;SDS011;11516;51.612;7.510;2022-10-19T01:49:06;6.85;;;3.95;;
22697;SDS011;11516;51.612;7.510;2022-10-19T01:51:53;8.15;;;4.00;;
22697;SDS011;11516;51.612;7.510;2022-10-19T01:54:24;9.02;;;3.85;;
22697;SDS011;11516;51.612;7.510;2022-10-19T01:56:54;8.68;;;3.97;;
22697;SDS011;11516;51.612;7.510;2022-10-19T01:59:22;6.85;;;3.60;;
22697;SDS011;11516;51.612;7.510;2022-10-19T02:01:50;7.68;;;3.50;;
22697;SDS011;11516;51.612;7.510;2022-10-19T02:04:18;9.65;;;3.75;;
22697;SDS011;11516;51.612;7.510;2022-10-19T02:06:45;9.70;;;4.07;;
22697;SDS011;11516;51.612;7.510;2022-10-19T02:09:11;10.35;;;4.13;;
22697;SDS011;11516;51.612;7.510;2022-10-19T02:11:42;7.18;;;4.30;;
22697;SDS011;11516;51.612;7.510;2022-10-19T02:14:11;6.70;;;3.65;;
22697;SDS011;11516;51.612;7.510;2022-10-19T02:16:40;6.57;;;3.55;;
22697;SDS011;11516;51.612;7.510;2022-10-19T02:19:13;9.02;;;3.90;;
22697;SDS011;11516;51.612;7.510;2022-10-19T02:21:40;6.65;;;3.67;;
22697;SDS011;11516;51.612;7.510;2022-10-19T02:24:06;9.05;;;4.13;;
22697;SDS011;11516;51.612;7.510;2022-10-19T02:26:32;6.10;;;3.70;;
22697;SDS011;11516;51.612;7.510;2022-10-19T02:28:58;7.70;;;3.50;;
22697;SDS011;11516;51.612;7.510;2022-10-19T02:31:24;10.98;;;4.10;;
22697;SDS011;11516;51.612;7.510;2022-10-19T02:33:50;15.43;;;5.57;;
22697;SDS011;11516;51.612;7.510;2022-10-19T02:36:16;13.40;;;4.45;;
22697;SDS011;11516;51.612;7.510;2022-10-19T02:38:42;11.48;;;3.85;;
22697;SDS011;11516;51.612;7.510;2022-10-19T02:41:22;8.52;;;3.75;;
22697;SDS011;11516;51.612;7.510;2022-10-19T02:43:55;7.35;;;3.47;;
22697;SDS011;11516;51.612;7.510;2022-10-19T02:46:30;8.30;;;4.30;;
22697;SDS011;11516;51.612;7.510;2022-10-19T02:49:00;8.50;;;3.80;;
22697;SDS011;11516;51.612;7.510;2022-10-19T02:53:58;9.15;;;4.22;;
22697;SDS011;11516;51.612;7.510;2022-10-19T02:56:24;8.15;;;3.95;;
22697;SDS011;11516;51.612;7.510;2022-10-19T02:58:50;6.20;;;3.83;;
22697;SDS011;11516;51.612;7.510;2022-10-19T03:01:15;8.63;;;4.13;;
22697;SDS011;11516;51.612;7.510;2022-10-19T03:03:41;6.03;;;3.58;;
22697;SDS011;11516;51.612;7.510;2022-10-19T03:06:06;10.53;;;4.17;;
22697;SDS011;11516;51.612;7.510;2022-10-19T03:08:32;6.53;;;4.18;;
22697;SDS011;11516;51.612;7.510;2022-10-19T03:10:58;9.68;;;3.63;;
22697;SDS011;11516;51.612;7.510;2022-10-19T03:13:24;6.17;;;3.80;;
22697;SDS011;11516;51.612;7.510;2022-10-19T03:15:49;7.50;;;4.07;;
22697;SDS011;11516;51.612;7.510;2022-10-19T03:18:15;6.03;;;3.97;;
22697;SDS011;11516;51.612;7.510;2022-10-19T03:20:41;7.82;;;3.92;;
22697;SDS011;11516;51.612;7.510;2022-10-19T03:23:06;7.25;;;3.85;;
22697;SDS011;11516;51.612;7.510;2022-10-19T03:25:32;5.43;;;3.53;;
22697;SDS011;11516;51.612;7.510;2022-10-19T03:27:57;6.80;;;3.80;;
22697;SDS011;11516;51.612;7.510;2022-10-19T03:30:23;8.57;;;3.85;;
22697;SDS011;11516;51.612;7.510;2022-10-19T03:32:49;5.30;;;3.80;;
22697;SDS011;11516;51.612;7.510;2022-10-19T03:35:14;7.78;;;4.05;;
22697;SDS011;11516;51.612;7.510;2022-10-19T03:37:40;5.83;;;3.90;;
22697;SDS011;11516;51.612;7.510;2022-10-19T03:40:06;7.30;;;4.23;;
22697;SDS011;11516;51.612;7.510;2022-10-19T03:42:32;7.78;;;3.90;;
22697;SDS011;11516;51.612;7.510;2022-10-19T03:44:57;9.68;;;3.92;;
22697;SDS011;11516;51.612;7.510;2022-10-19T03:47:23;8.63;;;4.45;;
22697;SDS011;11516;51.612;7.510;2022-10-19T03:49:49;10.03;;;5.50;;
22697;SDS011;11516;51.612;7.510;2022-10-19T03:52:15;11.45;;;5.85;;
22697;SDS011;11516;51.612;7.510;2022-10-19T03:54:42;11.05;;;6.05;;
22697;SDS011;11516;51.612;7.510;2022-10-19T03:57:08;16.93;;;7.57;;
22697;SDS011;11516;51.612;7.510;2022-10-19T03:59:33;16.05;;;7.78;;
22697;SDS011;11516;51.612;7.510;2022-10-19T04:01:59;21.65;;;7.53;;
22697;SDS011;11516;51.612;7.510;2022-10-19T04:04:24;21.67;;;6.90;;
22697;SDS011;11516;51.612;7.510;2022-10-19T04:06:50;13.68;;;6.57;;
22697;SDS011;11516;51.612;7.510;2022-10-19T04:09:18;17.42;;;6.72;;
22697;SDS011;11516;51.612;7.510;2022-10-19T04:11:44;16.35;;;6.95;;
22697;SDS011;11516;51.612;7.510;2022-10-19T04:14:11;12.93;;;6.90;;
22697;SDS011;11516;51.612;7.510;2022-10-19T04:16:38;16.00;;;6.80;;
22697;SDS011;11516;51.612;7.510;2022-10-19T04:19:04;11.70;;;6.77;;
22697;SDS011;11516;51.612;7.510;2022-10-19T04:21:33;15.20;;;7.47;;
22697;SDS011;11516;51.612;7.510;2022-10-19T04:24:03;11.65;;;7.35;;
22697;SDS011;11516;51.612;7.510;2022-10-19T04:26:28;12.35;;;7.03;;
22697;SDS011;11516;51.612;7.510;2022-10-19T04:28:57;9.80;;;6.93;;
22697;SDS011;11516;51.612;7.510;2022-10-19T04:31:23;13.30;;;6.90;;
22697;SDS011;11516;51.612;7.510;2022-10-19T04:33:50;12.40;;;6.67;;
22697;SDS011;11516;51.612;7.510;2022-10-19T04:36:15;10.00;;;6.57;;
22697;SDS011;11516;51.612;7.510;2022-10-19T04:38:41;11.00;;;6.57;;
22697;SDS011;11516;51.612;7.510;2022-10-19T04:41:07;9.73;;;6.47;;
22697;SDS011;11516;51.612;7.510;2022-10-19T04:43:35;11.30;;;6.15;;
22697;SDS011;11516;51.612;7.510;2022-10-19T04:46:08;12.23;;;7.30;;
22697;SDS011;11516;51.612;7.510;2022-10-19T04:48:36;9.93;;;6.75;;
22697;SDS011;11516;51.612;7.510;2022-10-19T04:51:03;12.05;;;7.40;;
22697;SDS011;11516;51.612;7.510;2022-10-19T04:53:29;11.40;;;7.47;;
22697;SDS011;11516;51.612;7.510;2022-10-19T04:55:55;14.45;;;7.90;;
22697;SDS011;11516;51.612;7.510;2022-10-19T04:58:21;11.40;;;8.17;;
22697;SDS011;11516;51.612;7.510;2022-10-19T05:00:47;11.95;;;8.52;;
22697;SDS011;11516;51.612;7.510;2022-10-19T05:03:12;18.58;;;9.18;;
22697;SDS011;11516;51.612;7.510;2022-10-19T05:05:38;17.60;;;9.00;;
22697;SDS011;11516;51.612;7.510;2022-10-19T05:08:05;14.38;;;10.25;;
22697;SDS011;11516;51.612;7.510;2022-10-19T05:10:30;14.45;;;9.68;;
22697;SDS011;11516;51.612;7.510;2022-10-19T05:12:56;13.77;;;9.33;;
22697;SDS011;11516;51.612;7.510;2022-10-19T05:15:23;20.88;;;11.13;;
22697;SDS011;11516;51.612;7.510;2022-10-19T05:17:49;26.73;;;11.15;;
22697;SDS011;11516;51.612;7.510;2022-10-19T05:20:15;30.13;;;12.80;;
22697;SDS011;11516;51.612;7.510;2022-10-19T05:22:40;46.38;;;13.77;;
22697;SDS011;11516;51.612;7.510;2022-10-19T05:25:06;43.93;;;13.37;;
22697;SDS011;11516;51.612;7.510;2022-10-19T05:27:32;32.17;;;12.05;;
22697;SDS011;11516;51.612;7.510;2022-10-19T05:29:58;23.27;;;12.10;;
22697;SDS011;11516;51.612;7.510;2022-10-19T05:32:24;27.25;;;11.75;;
22697;SDS011;11516;51.612;7.510;2022-10-19T05:34:50;34.50;;;11.95;;
22697;SDS011;11516;51.612;7.510;2022-10-19T05:37:16;40.27;;;11.97;;
22697;SDS011;11516;51.612;7.510;2022-10-19T05:39:42;33.00;;;12.55;;
22697;SDS011;11516;51.612;7.510;2022-10-19T05:42:07;29.05;;;13.07;;
22697;SDS011;11516;51.612;7.510;2022-10-19T05:44:33;23.77;;;11.90;;
22697;SDS011;11516;51.612;7.510;2022-10-19T05:46:59;28.50;;;11.77;;
22697;SDS011;11516;51.612;7.510;2022-10-19T05:49:26;24.73;;;11.32;;
22697;SDS011;11516;51.612;7.510;2022-10-19T05:51:51;16.10;;;10.73;;
22697;SDS011;11516;51.612;7.510;2022-10-19T05:54:17;12.55;;;10.75;;
22697;SDS011;11516;51.612;7.510;2022-10-19T05:56:43;21.80;;;12.32;;
22697;SDS011;11516;51.612;7.510;2022-10-19T05:59:10;18.20;;;11.70;;
22697;SDS011;11516;51.612;7.510;2022-10-19T06:01:39;17.57;;;12.03;;
22697;SDS011;11516;51.612;7.510;2022-10-19T06:04:05;16.10;;;12.30;;
22697;SDS011;11516;51.612;7.510;2022-10-19T06:06:31;26.05;;;12.27;;
22697;SDS011;11516;51.612;7.510;2022-10-19T06:08:57;19.92;;;13.80;;
22697;SDS011;11516;51.612;7.510;2022-10-19T06:11:31;28.73;;;13.88;;
22697;SDS011;11516;51.612;7.510;2022-10-19T06:13:59;28.48;;;15.50;;
22697;SDS011;11516;51.612;7.510;2022-10-19T06:16:26;21.75;;;15.32;;
22697;SDS011;11516;51.612;7.510;2022-10-19T06:18:53;22.05;;;14.30;;
22697;SDS011;11516;51.612;7.510;2022-10-19T06:21:20;17.20;;;13.13;;
22697;SDS011;11516;51.612;7.510;2022-10-19T06:24:06;21.10;;;14.23;;
22697;SDS011;11516;51.612;7.510;2022-10-19T06:26:34;28.17;;;14.05;;
22697;SDS011;11516;51.612;7.510;2022-10-19T06:29:00;22.10;;;12.83;;
22697;SDS011;11516;51.612;7.510;2022-10-19T06:31:28;16.30;;;12.63;;
22697;SDS011;11516;51.612;7.510;2022-10-19T06:33:55;23.52;;;13.18;;
22697;SDS011;11516;51.612;7.510;2022-10-19T06:36:21;23.87;;;14.87;;
22697;SDS011;11516;51.612;7.510;2022-10-19T06:38:49;24.63;;;16.03;;
22697;SDS011;11516;51.612;7.510;2022-10-19T06:41:15;22.50;;;14.77;;
22697;SDS011;11516;51.612;7.510;2022-10-19T06:43:41;30.65;;;13.10;;
22697;SDS011;11516;51.612;7.510;2022-10-19T06:46:08;24.73;;;12.90;;
22697;SDS011;11516;51.612;7.510;2022-10-19T06:48:36;22.43;;;12.47;;
22697;SDS011;11516;51.612;7.510;2022-10-19T06:51:03;17.20;;;12.65;;
22697;SDS011;11516;51.612;7.510;2022-10-19T06:53:31;17.05;;;12.20;;
22697;SDS011;11516;51.612;7.510;2022-10-19T06:55:58;16.80;;;13.45;;
22697;SDS011;11516;51.612;7.510;2022-10-19T06:58:25;17.40;;;13.93;;
22697;SDS011;11516;51.612;7.510;2022-10-19T07:00:57;16.45;;;12.65;;
22697;SDS011;11516;51.612;7.510;2022-10-19T07:03:24;17.70;;;13.40;;
22697;SDS011;11516;51.612;7.510;2022-10-19T07:05:54;18.85;;;14.27;;
22697;SDS011;11516;51.612;7.510;2022-10-19T07:08:21;18.48;;;14.00;;
22697;SDS011;11516;51.612;7.510;2022-10-19T07:10:54;17.15;;;12.93;;
22697;SDS011;11516;51.612;7.510;2022-10-19T07:13:21;16.77;;;12.57;;
22697;SDS011;11516;51.612;7.510;2022-10-19T07:15:47;18.10;;;12.45;;
22697;SDS011;11516;51.612;7.510;2022-10-19T07:18:13;17.07;;;11.03;;
22697;SDS011;11516;51.612;7.510;2022-10-19T07:20:39;13.27;;;10.35;;
22697;SDS011;11516;51.612;7.510;2022-10-19T07:23:04;13.65;;;9.57;;
22697;SDS011;11516;51.612;7.510;2022-10-19T07:25:30;14.73;;;9.05;;
22697;SDS011;11516;51.612;7.510;2022-10-19T07:27:56;12.30;;;8.70;;
22697;SDS011;11516;51.612;7.510;2022-10-19T07:30:21;11.60;;;9.40;;
22697;SDS011;11516;51.612;7.510;2022-10-19T07:32:48;11.35;;;9.00;;
22697;SDS011;11516;51.612;7.510;2022-10-19T07:35:14;13.18;;;9.30;;
22697;SDS011;11516;51.612;7.510;2022-10-19T07:37:39;13.53;;;9.70;;
22697;SDS011;11516;51.612;7.510;2022-10-19T07:40:08;12.32;;;9.95;;
22697;SDS011;11516;51.612;7.510;2022-10-19T07:42:37;15.02;;;10.13;;
22697;SDS011;11516;51.612;7.510;2022-10-19T07:45:03;13.48;;;9.73;;
22697;SDS011;11516;51.612;7.510;2022-10-19T07:47:29;11.65;;;9.90;;
22697;SDS011;11516;51.612;7.510;2022-10-19T07:49:54;15.55;;;10.90;;
22697;SDS011;11516;51.612;7.510;2022-10-19T07:52:20;12.97;;;10.87;;
22697;SDS011;11516;51.612;7.510;2022-10-19T07:54:45;14.07;;;10.57;;
22697;SDS011;11516;51.612;7.510;2022-10-19T07:57:13;13.68;;;11.25;;
22697;SDS011;11516;51.612;7.510;2022-10-19T07:59:39;16.30;;;11.40;;
22697;SDS011;11516;51.612;7.510;2022-10-19T08:02:05;14.10;;;11.75;;
22697;SDS011;11516;51.612;7.510;2022-10-19T08:04:37;14.70;;;11.55;;
22697;SDS011;11516;51.612;7.510;2022-10-19T08:07:03;16.20;;;11.93;;
22697;SDS011;11516;51.612;7.510;2022-10-19T08:09:29;13.90;;;11.50;;
22697;SDS011;11516;51.612;7.510;2022-10-19T08:11:54;14.07;;;11.27;;
22697;SDS011;11516;51.612;7.510;2022-10-19T08:14:21;14.20;;;10.73;;
22697;SDS011;11516;51.612;7.510;2022-10-19T08:16:46;12.95;;;10.38;;
22697;SDS011;11516;51.612;7.510;2022-10-19T08:19:12;17.35;;;11.55;;
22697;SDS011;11516;51.612;7.510;2022-10-19T08:21:41;15.25;;;11.57;;
22697;SDS011;11516;51.612;7.510;2022-10-19T08:24:08;17.52;;;11.90;;
22697;SDS011;11516;51.612;7.510;2022-10-19T08:26:35;17.40;;;13.45;;
22697;SDS011;11516;51.612;7.510;2022-10-19T08:29:14;14.82;;;11.52;;
22697;SDS011;11516;51.612;7.510;2022-10-19T08:31:42;15.27;;;11.43;;
22697;SDS011;11516;51.612;7.510;2022-10-19T08:34:10;15.18;;;11.80;;
22697;SDS011;11516;51.612;7.510;2022-10-19T08:36:36;17.27;;;11.30;;
22697;SDS011;11516;51.612;7.510;2022-10-19T08:39:03;18.75;;;12.48;;
22697;SDS011;11516;51.612;7.510;2022-10-19T08:47:11;15.83;;;11.90;;
22697;SDS011;11516;51.612;7.510;2022-10-19T08:49:57;18.70;;;12.55;;
22697;SDS011;11516;51.612;7.510;2022-10-19T08:52:26;21.42;;;14.43;;
22697;SDS011;11516;51.612;7.510;2022-10-19T08:54:55;19.27;;;12.27;;
22697;SDS011;11516;51.612;7.510;2022-10-19T09:00:36;21.00;;;13.32;;
22697;SDS011;11516;51.612;7.510;2022-10-19T09:08:38;24.20;;;12.98;;
22697;SDS011;11516;51.612;7.510;2022-10-19T09:11:05;18.77;;;11.97;;
22697;SDS011;11516;51.612;7.510;2022-10-19T09:13:39;18.48;;;11.82;;
22697;SDS011;11516;51.612;7.510;2022-10-19T09:16:13;16.00;;;10.70;;
22697;SDS011;11516;51.612;7.510;2022-10-19T09:18:41;15.23;;;10.30;;
22697;SDS011;11516;51.612;7.510;2022-10-19T09:21:15;19.15;;;11.02;;
22697;SDS011;11516;51.612;7.510;2022-10-19T09:26:21;18.40;;;10.95;;
22697;SDS011;11516;51.612;7.510;2022-10-19T09:29:02;14.90;;;8.98;;
22697;SDS011;11516;51.612;7.510;2022-10-19T09:31:40;16.15;;;8.77;;
22697;SDS011;11516;51.612;7.510;2022-10-19T09:36:43;12.90;;;8.18;;
22697;SDS011;11516;51.612;7.510;2022-10-19T09:39:12;13.98;;;7.40;;
22697;SDS011;11516;51.612;7.510;2022-10-19T09:41:43;10.38;;;6.35;;
22697;SDS011;11516;51.612;7.510;2022-10-19T09:44:24;11.48;;;5.88;;
22697;SDS011;11516;51.612;7.510;2022-10-19T09:46:53;9.95;;;5.35;;
22697;SDS011;11516;51.612;7.510;2022-10-19T09:52:08;13.57;;;6.60;;
22697;SDS011;11516;51.612;7.510;2022-10-19T09:55:38;8.25;;;5.82;;
22697;SDS011;11516;51.612;7.510;2022-10-19T09:57:58;9.95;;;4.63;;
22697;SDS011;11516;51.612;7.510;2022-10-19T10:03:26;9.13;;;4.00;;
22697;SDS011;11516;51.612;7.510;2022-10-19T10:05:55;8.98;;;4.13;;
22697;SDS011;11516;51.612;7.510;2022-10-19T10:08:23;8.15;;;3.17;;
22697;SDS011;11516;51.612;7.510;2022-10-19T10:11:04;6.80;;;2.65;;
22697;SDS011;11516;51.612;7.510;2022-10-19T10:13:40;6.60;;;2.63;;
22697;SDS011;11516;51.612;7.510;2022-10-19T10:16:13;6.00;;;1.97;;
22697;SDS011;11516;51.612;7.510;2022-10-19T10:18:49;5.60;;;2.38;;
22697;SDS011;11516;51.612;7.510;2022-10-19T10:21:21;7.57;;;3.20;;
22697;SDS011;11516;51.612;7.510;2022-10-19T10:24:01;13.27;;;5.80;;
22697;SDS011;11516;51.612;7.510;2022-10-19T10:26:38;6.53;;;2.38;;
22697;SDS011;11516;51.612;7.510;2022-10-19T10:31:49;12.27;;;2.78;;
22697;SDS011;11516;51.612;7.510;2022-10-19T10:34:21;8.30;;;2.50;;
22697;SDS011;11516;51.612;7.510;2022-10-19T10:36:55;5.60;;;2.17;;
22697;SDS011;11516;51.612;7.510;2022-10-19T10:39:21;4.38;;;2.38;;
22697;SDS011;11516;51.612;7.510;2022-10-19T10:41:50;6.33;;;2.57;;
22697;SDS011;11516;51.612;7.510;2022-10-19T10:47:01;5.47;;;2.45;;
22697;SDS011;11516;51.612;7.510;2022-10-19T10:49:36;4.88;;;2.55;;
22697;SDS011;11516;51.612;7.510;2022-10-19T10:52:05;8.40;;;3.10;;
22697;SDS011;11516;51.612;7.510;2022-10-19T10:54:34;7.70;;;2.97;;
22697;SDS011;11516;51.612;7.510;2022-10-19T11:02:23;4.43;;;2.22;;
22697;SDS011;11516;51.612;7.510;2022-10-19T11:11:21;5.20;;;2.60;;
22697;SDS011;11516;51.612;7.510;2022-10-19T11:17:02;7.03;;;2.80;;
22697;SDS011;11516;51.612;7.510;2022-10-19T11:19:39;5.53;;;2.42;;
22697;SDS011;11516;51.612;7.510;2022-10-19T11:22:18;5.45;;;2.40;;
22697;SDS011;11516;51.612;7.510;2022-10-19T11:25:03;5.00;;;2.50;;
22697;SDS011;11516;51.612;7.510;2022-10-19T11:30:25;6.43;;;2.20;;
22697;SDS011;11516;51.612;7.510;2022-10-19T11:32:59;5.53;;;2.10;;
22697;SDS011;11516;51.612;7.510;2022-10-19T11:38:44;5.03;;;2.40;;
22697;SDS011;11516;51.612;7.510;2022-10-19T11:44:53;3.83;;;1.70;;
22697;SDS011;11516;51.612;7.510;2022-10-19T11:53:02;3.55;;;1.60;;
22697;SDS011;11516;51.612;7.510;2022-10-19T11:55:42;3.63;;;1.97;;
22697;SDS011;11516;51.612;7.510;2022-10-19T11:58:25;6.75;;;2.03;;
22697;SDS011;11516;51.612;7.510;2022-10-19T12:04:10;6.65;;;1.98;;
22697;SDS011;11516;51.612;7.510;2022-10-19T12:10:06;4.53;;;1.90;;
22697;SDS011;11516;51.612;7.510;2022-10-19T12:12:43;4.40;;;1.88;;
22697;SDS011;11516;51.612;7.510;2022-10-19T12:18:03;3.80;;;2.13;;
22697;SDS011;11516;51.612;7.510;2022-10-19T12:20:53;5.50;;;2.33;;
22697;SDS011;11516;51.612;7.510;2022-10-19T12:23:30;4.27;;;2.07;;
22697;SDS011;11516;51.612;7.510;2022-10-19T12:25:58;5.03;;;2.20;;
22697;SDS011;11516;51.612;7.510;2022-10-19T12:28:28;5.68;;;3.17;;
22697;SDS011;11516;51.612;7.510;2022-10-19T12:30:55;6.35;;;2.20;;
22697;SDS011;11516;51.612;7.510;2022-10-19T12:33:28;6.32;;;2.38;;
22697;SDS011;11516;51.612;7.510;2022-10-19T12:41:19;8.40;;;2.30;;
22697;SDS011;11516;51.612;7.510;2022-10-19T12:46:48;4.50;;;2.08;;
22697;SDS011;11516;51.612;7.510;2022-10-19T12:52:09;5.60;;;2.10;;
22697;SDS011;11516;51.612;7.510;2022-10-19T12:54:37;6.13;;;2.03;;
22697;SDS011;11516;51.612;7.510;2022-10-19T12:57:18;4.40;;;1.83;;
22697;SDS011;11516;51.612;7.510;2022-10-19T12:59:55;7.03;;;3.75;;
22697;SDS011;11516;51.612;7.510;2022-10-19T13:02:26;5.27;;;2.43;;
22697;SDS011;11516;51.612;7.510;2022-10-19T13:04:57;4.93;;;2.10;;
22697;SDS011;11516;51.612;7.510;2022-10-19T13:07:24;3.20;;;1.50;;
22697;SDS011;11516;51.612;7.510;2022-10-19T13:09:51;4.25;;;1.80;;
22697;SDS011;11516;51.612;7.510;2022-10-19T13:12:27;5.25;;;1.60;;
22697;SDS011;11516;51.612;7.510;2022-10-19T13:14:57;4.22;;;1.75;;
22697;SDS011;11516;51.612;7.510;2022-10-19T13:22:42;5.47;;;1.83;;
22697;SDS011;11516;51.612;7.510;2022-10-19T13:27:41;3.20;;;1.30;;
22697;SDS011;11516;51.612;7.510;2022-10-19T13:36:09;4.80;;;1.65;;
22697;SDS011;11516;51.612;7.510;2022-10-19T13:46:20;5.30;;;1.55;;
22697;SDS011;11516;51.612;7.510;2022-10-19T13:57:05;3.47;;;1.38;;
22697;SDS011;11516;51.612;7.510;2022-10-19T14:11:13;3.28;;;1.35;;
22697;SDS011;11516;51.612;7.510;2022-10-19T14:14:05;2.97;;;1.40;;
22697;SDS011;11516;51.612;7.510;2022-10-19T14:16:50;2.90;;;1.20;;
22697;SDS011;11516;51.612;7.510;2022-10-19T14:19:32;3.10;;;0.98;;
22697;SDS011;11516;51.612;7.510;2022-10-19T14:24:51;3.65;;;1.40;;
22697;SDS011;11516;51.612;7.510;2022-10-19T14:27:44;2.10;;;1.38;;
22697;SDS011;11516;51.612;7.510;2022-10-19T14:30:20;3.45;;;1.10;;
22697;SDS011;11516;51.612;7.510;2022-10-19T14:32:46;4.15;;;1.13;;
22697;SDS011;11516;51.612;7.510;2022-10-19T14:35:29;3.40;;;1.35;;
22697;SDS011;11516;51.612;7.510;2022-10-19T14:37:57;3.55;;;1.17;;
22697;SDS011;11516;51.612;7.510;2022-10-19T14:40:57;4.53;;;1.60;;
22697;SDS011;11516;51.612;7.510;2022-10-19T14:43:20;4.13;;;1.40;;
22697;SDS011;11516;51.612;7.510;2022-10-19T14:48:31;3.97;;;1.55;;
22697;SDS011;11516;51.612;7.510;2022-10-19T14:50:58;3.67;;;1.30;;
22697;SDS011;11516;51.612;7.510;2022-10-19T14:56:05;3.65;;;1.20;;
22697;SDS011;11516;51.612;7.510;2022-10-19T14:58:37;4.65;;;1.50;;
22697;SDS011;11516;51.612;7.510;2022-10-19T15:01:19;6.00;;;1.75;;
22697;SDS011;11516;51.612;7.510;2022-10-19T15:03:45;7.27;;;2.57;;
22697;SDS011;11516;51.612;7.510;2022-10-19T15:06:34;6.85;;;4.60;;
22697;SDS011;11516;51.612;7.510;2022-10-19T15:09:04;2.80;;;1.65;;
22697;SDS011;11516;51.612;7.510;2022-10-19T15:11:37;4.72;;;1.40;;
22697;SDS011;11516;51.612;7.510;2022-10-19T15:14:06;3.43;;;1.40;;
22697;SDS011;11516;51.612;7.510;2022-10-19T15:17:19;5.43;;;2.65;;
22697;SDS011;11516;51.612;7.510;2022-10-19T15:19:45;6.35;;;2.75;;
22697;SDS011;11516;51.612;7.510;2022-10-19T15:27:27;5.82;;;2.05;;
22697;SDS011;11516;51.612;7.510;2022-10-19T15:29:54;3.47;;;1.90;;
22697;SDS011;11516;51.612;7.510;2022-10-19T15:32:22;5.15;;;1.80;;
22697;SDS011;11516;51.612;7.510;2022-10-19T15:34:50;7.57;;;1.73;;
22697;SDS011;11516;51.612;7.510;2022-10-19T15:37:17;4.95;;;1.90;;
22697;SDS011;11516;51.612;7.510;2022-10-19T15:39:45;5.28;;;1.80;;
22697;SDS011;11516;51.612;7.510;2022-10-19T15:42:54;4.23;;;2.00;;
22697;SDS011;11516;51.612;7.510;2022-10-19T15:45:04;4.35;;;1.75;;
22697;SDS011;11516;51.612;7.510;2022-10-19T15:48:13;2.70;;;1.83;;
22697;SDS011;11516;51.612;7.510;2022-10-19T15:50:47;4.78;;;1.88;;
22697;SDS011;11516;51.612;7.510;2022-10-19T15:53:15;7.15;;;3.00;;
22697;SDS011;11516;51.612;7.510;2022-10-19T15:55:41;4.43;;;2.42;;
22697;SDS011;11516;51.612;7.510;2022-10-19T15:58:07;5.30;;;2.40;;
22697;SDS011;11516;51.612;7.510;2022-10-19T16:00:34;5.75;;;2.70;;
22697;SDS011;11516;51.612;7.510;2022-10-19T16:03:00;4.13;;;2.15;;
22697;SDS011;11516;51.612;7.510;2022-10-19T16:05:26;4.10;;;2.20;;
22697;SDS011;11516;51.612;7.510;2022-10-19T16:07:52;4.38;;;2.13;;
22697;SDS011;11516;51.612;7.510;2022-10-19T16:10:19;6.63;;;2.03;;
22697;SDS011;11516;51.612;7.510;2022-10-19T16:12:46;4.20;;;2.20;;
22697;SDS011;11516;51.612;7.510;2022-10-19T16:15:12;6.00;;;2.30;;
22697;SDS011;11516;51.612;7.510;2022-10-19T16:17:41;5.68;;;2.25;;
22697;SDS011;11516;51.612;7.510;2022-10-19T16:20:08;6.78;;;2.40;;
22697;SDS011;11516;51.612;7.510;2022-10-19T16:22:34;3.20;;;1.83;;
22697;SDS011;11516;51.612;7.510;2022-10-19T16:25:00;4.47;;;2.23;;
22697;SDS011;11516;51.612;7.510;2022-10-19T16:27:25;3.63;;;2.20;;
22697;SDS011;11516;51.612;7.510;2022-10-19T16:29:51;5.73;;;2.57;;
22697;SDS011;11516;51.612;7.510;2022-10-19T16:32:16;6.70;;;2.80;;
22697;SDS011;11516;51.612;7.510;2022-10-19T16:34:42;6.47;;;2.50;;
22697;SDS011;11516;51.612;7.510;2022-10-19T16:37:07;4.20;;;2.10;;
22697;SDS011;11516;51.612;7.510;2022-10-19T16:39:33;4.90;;;2.30;;
22697;SDS011;11516;51.612;7.510;2022-10-19T16:41:59;5.18;;;2.40;;
22697;SDS011;11516;51.612;7.510;2022-10-19T16:44:24;4.80;;;2.83;;
22697;SDS011;11516;51.612;7.510;2022-10-19T16:46:49;4.03;;;2.50;;
22697;SDS011;11516;51.612;7.510;2022-10-19T16:49:15;4.73;;;2.43;;
22697;SDS011;11516;51.612;7.510;2022-10-19T16:51:41;5.20;;;2.53;;
22697;SDS011;11516;51.612;7.510;2022-10-19T16:54:07;7.30;;;3.10;;
22697;SDS011;11516;51.612;7.510;2022-10-19T16:56:35;5.25;;;2.40;;
22697;SDS011;11516;51.612;7.510;2022-10-19T16:59:05;5.07;;;2.30;;
22697;SDS011;11516;51.612;7.510;2022-10-19T17:01:32;5.37;;;3.47;;
22697;SDS011;11516;51.612;7.510;2022-10-19T17:03:58;4.68;;;2.25;;
22697;SDS011;11516;51.612;7.510;2022-10-19T17:06:25;5.82;;;2.17;;
22697;SDS011;11516;51.612;7.510;2022-10-19T17:08:51;4.15;;;2.28;;
22697;SDS011;11516;51.612;7.510;2022-10-19T17:11:22;7.05;;;2.60;;
22697;SDS011;11516;51.612;7.510;2022-10-19T17:13:49;7.07;;;2.80;;
22697;SDS011;11516;51.612;7.510;2022-10-19T17:16:17;5.53;;;2.42;;
22697;SDS011;11516;51.612;7.510;2022-10-19T17:18:44;4.57;;;2.28;;
22697;SDS011;11516;51.612;7.510;2022-10-19T17:23:37;5.27;;;2.10;;
22697;SDS011;11516;51.612;7.510;2022-10-19T17:26:03;5.65;;;2.10;;
22697;SDS011;11516;51.612;7.510;2022-10-19T17:28:30;5.32;;;1.80;;
22697;SDS011;11516;51.612;7.510;2022-10-19T17:30:59;4.68;;;1.90;;